Login to view Products
 
Saturday, May 28, 2022 (11:08 UTC)
Dubai International Airport
Last Updated: 28-May-2022 (11:04Z)
Wind Dir/Speed: WNW at 09 kt
Temperature:
Rel. Humidity:
Pressure: 1000.9 hPa
Visibility: /// m
  • METAR OMDB 281100Z 32010KT 260V350 CAVOK 38/19 Q1001 NOSIG
  • TAF OMDB 280500Z 2806/2912 23008KT CAVOK BECMG 2806/2808 29013KT BECMG 2816/2818 18005KT BECMG 2908/2910 30012KT=
11-- D:\Input Parser\Destinations\Final\05\OMDB_TAF.txt 27/05/2022-- 28/05/2022-- 3